createdAt,value
2023-05-23T00:00:11.614Z,65.10
2023-05-23T00:02:43.935Z,61.05
2023-05-23T00:05:12.115Z,62.75
2023-05-23T00:07:39.160Z,60.35
2023-05-23T00:10:06.499Z,65.03
2023-05-23T00:12:37.936Z,62.58
2023-05-23T00:15:08.921Z,66.93
2023-05-23T00:17:39.747Z,65.72
2023-05-23T00:20:11.092Z,61.08
2023-05-23T00:22:43.194Z,60.07
2023-05-23T00:27:37.563Z,63.42
2023-05-23T00:30:05.261Z,68.63
2023-05-23T00:32:32.377Z,64.35
2023-05-23T00:34:59.617Z,62.88
2023-05-23T00:37:26.980Z,61.28
2023-05-23T00:39:54.162Z,66.28
2023-05-23T00:42:21.269Z,66.95
2023-05-23T00:44:50.312Z,65.13
2023-05-23T00:47:18.083Z,61.55
2023-05-23T00:49:48.310Z,63.22
2023-05-23T00:52:15.538Z,61.28
2023-05-23T00:54:43.136Z,57.03
2023-05-23T00:57:10.275Z,67.10
2023-05-23T00:59:38.672Z,55.00
2023-05-23T01:02:06.000Z,60.50
2023-05-23T01:04:34.400Z,63.42
2023-05-23T01:07:02.312Z,61.67
2023-05-23T01:09:30.031Z,63.05
2023-05-23T01:12:17.618Z,62.38
2023-05-23T01:14:57.128Z,64.18
2023-05-23T01:17:36.327Z,72.90
2023-05-23T01:20:12.848Z,64.28
2023-05-23T01:22:48.814Z,66.45
2023-05-23T01:25:50.180Z,70.22
2023-05-23T01:28:22.079Z,80.20
2023-05-23T01:33:20.700Z,65.28
2023-05-23T01:35:48.331Z,63.30
2023-05-23T01:38:15.494Z,64.13
2023-05-23T01:40:42.576Z,57.67
2023-05-23T01:43:10.921Z,67.10
2023-05-23T01:45:38.053Z,60.42
2023-05-23T01:48:06.652Z,55.83
2023-05-23T01:50:34.229Z,57.13
2023-05-23T01:53:02.045Z,56.47
2023-05-23T01:55:31.229Z,55.58
2023-05-23T01:57:59.616Z,53.75
2023-05-23T02:00:27.184Z,51.28
2023-05-23T02:02:54.402Z,50.88
2023-05-23T02:05:21.742Z,51.60
2023-05-23T02:07:48.719Z,54.20
2023-05-23T02:10:17.946Z,47.63
2023-05-23T02:12:44.907Z,50.63
2023-05-23T02:15:11.977Z,50.50
2023-05-23T02:17:39.511Z,49.70
2023-05-23T02:20:07.709Z,59.95
2023-05-23T02:22:34.728Z,45.95
2023-05-23T02:25:04.151Z,48.85
2023-05-23T02:27:35.770Z,46.53
2023-05-23T02:30:03.160Z,50.78
2023-05-23T02:32:30.624Z,41.85
2023-05-23T02:34:58.312Z,51.20
2023-05-23T02:37:25.377Z,44.05
2023-05-23T02:39:52.321Z,40.15
2023-05-23T02:42:19.337Z,45.88
2023-05-23T02:44:46.463Z,43.00
2023-05-23T02:47:13.542Z,43.58
2023-05-23T02:49:40.661Z,41.17
2023-05-23T02:52:08.570Z,43.33
2023-05-23T02:54:35.661Z,45.45
2023-05-23T02:57:04.526Z,44.70
2023-05-23T02:59:35.310Z,42.08
2023-05-23T03:02:02.424Z,47.13
2023-05-23T03:04:29.775Z,42.40
2023-05-23T03:07:02.444Z,38.20
2023-05-23T03:09:30.269Z,36.47
2023-05-23T03:11:57.743Z,33.63
2023-05-23T03:14:24.867Z,39.28
2023-05-23T03:16:51.925Z,33.45
2023-05-23T03:19:19.012Z,28.63
2023-05-23T03:21:46.634Z,32.60
2023-05-23T03:24:13.673Z,26.67
2023-05-23T03:26:41.139Z,24.95
2023-05-23T03:29:08.299Z,26.05
2023-05-23T03:31:35.481Z,25.67
2023-05-23T03:34:03.070Z,24.45
2023-05-23T03:36:33.421Z,24.45
2023-05-23T03:39:01.200Z,24.30
2023-05-23T03:41:28.305Z,24.98
2023-05-23T03:43:56.094Z,24.85
2023-05-23T03:46:25.109Z,17.83
2023-05-23T03:48:52.847Z,21.83
2023-05-23T03:51:21.661Z,20.02
2023-05-23T03:53:48.938Z,19.15
2023-05-23T03:56:16.096Z,17.88
2023-05-23T03:58:43.929Z,21.38
2023-05-23T04:01:14.367Z,23.00
2023-05-23T04:03:41.653Z,20.35
2023-05-23T04:06:12.153Z,16.42
2023-05-23T04:08:42.260Z,21.15
2023-05-23T04:11:09.550Z,25.58
2023-05-23T04:13:38.598Z,19.90
2023-05-23T04:16:07.339Z,19.65
2023-05-23T04:18:34.593Z,24.35
2023-05-23T04:21:01.763Z,18.38
2023-05-23T04:23:29.973Z,21.15
2023-05-23T04:25:57.692Z,16.42
2023-05-23T04:28:27.913Z,18.80
2023-05-23T04:30:56.490Z,17.42
2023-05-23T04:33:28.412Z,18.00
2023-05-23T04:35:56.411Z,16.15
2023-05-23T04:38:25.258Z,19.33
2023-05-23T04:40:52.885Z,18.63
2023-05-23T04:43:42.835Z,19.88
2023-05-23T04:46:32.826Z,22.63
2023-05-23T04:49:17.182Z,20.55
2023-05-23T04:51:44.973Z,19.10
2023-05-23T04:54:21.851Z,21.92
2023-05-23T04:56:49.121Z,19.42
2023-05-23T04:59:19.211Z,21.15
2023-05-23T05:01:46.952Z,20.45
2023-05-23T05:04:15.655Z,24.85
2023-05-23T05:06:43.020Z,22.83
2023-05-23T05:09:12.925Z,28.00
2023-05-23T05:11:41.956Z,24.75
2023-05-23T05:14:09.067Z,26.15
2023-05-23T05:16:37.995Z,22.38
2023-05-23T05:19:05.852Z,23.48
2023-05-23T05:21:33.178Z,24.25
2023-05-23T05:24:00.232Z,27.38
2023-05-23T05:26:28.146Z,23.88
2023-05-23T05:28:55.537Z,20.38
2023-05-23T05:31:24.544Z,21.48
2023-05-23T05:33:51.484Z,29.10
2023-05-23T05:36:24.037Z,24.45
2023-05-23T05:38:51.591Z,20.77
2023-05-23T05:41:22.458Z,22.38
2023-05-23T05:43:51.749Z,22.27
2023-05-23T05:46:19.122Z,19.27
2023-05-23T05:48:47.516Z,22.05
2023-05-23T05:51:16.641Z,20.00
2023-05-23T05:53:44.826Z,19.77
2023-05-23T05:56:18.454Z,21.20
2023-05-23T05:58:45.817Z,22.63
2023-05-23T06:01:18.370Z,20.73
2023-05-23T06:03:46.039Z,19.33
2023-05-23T06:06:13.192Z,21.70
2023-05-23T06:08:42.084Z,21.17
2023-05-23T06:11:12.677Z,19.08
2023-05-23T06:13:39.660Z,20.58
2023-05-23T06:16:07.273Z,19.58
2023-05-23T06:18:34.330Z,20.00
2023-05-23T06:21:04.306Z,23.33
2023-05-23T06:23:32.988Z,27.60
2023-05-23T06:26:00.201Z,22.20
2023-05-23T06:28:27.534Z,24.95
2023-05-23T06:30:57.185Z,22.42
2023-05-23T06:33:24.263Z,21.98
2023-05-23T06:35:51.281Z,23.52
2023-05-23T06:38:18.402Z,22.45
2023-05-23T06:40:46.775Z,23.30
2023-05-23T06:43:16.411Z,19.80
2023-05-23T06:45:52.339Z,20.95
2023-05-23T06:48:20.150Z,18.77
2023-05-23T06:50:47.861Z,19.20
2023-05-23T06:53:18.905Z,23.25
2023-05-23T06:55:47.300Z,24.05
2023-05-23T06:58:17.412Z,21.48
2023-05-23T07:00:45.873Z,25.85
2023-05-23T07:03:21.758Z,25.67
2023-05-23T07:05:49.699Z,25.35
2023-05-23T07:08:18.431Z,22.73
2023-05-23T07:11:00.370Z,26.98
2023-05-23T07:13:47.698Z,29.60
2023-05-23T07:16:21.738Z,31.00
2023-05-23T07:19:03.562Z,29.63
2023-05-23T07:21:31.952Z,31.00
2023-05-23T07:24:00.653Z,33.70
2023-05-23T07:26:28.833Z,33.47
2023-05-23T07:28:56.921Z,32.35
2023-05-23T07:31:24.140Z,33.72
2023-05-23T07:33:57.110Z,31.75
2023-05-23T07:36:35.876Z,25.98
2023-05-23T07:39:07.666Z,26.90
2023-05-23T07:41:34.802Z,32.53
2023-05-23T07:44:02.092Z,22.48
2023-05-23T07:46:29.386Z,20.88
2023-05-23T07:48:57.537Z,30.60
2023-05-23T07:51:44.512Z,20.35
2023-05-23T07:54:15.077Z,14.68
2023-05-23T07:56:43.892Z,20.25
2023-05-23T07:59:10.879Z,18.75
2023-05-23T08:01:38.487Z,20.52
2023-05-23T08:04:08.807Z,13.93
2023-05-23T08:06:56.437Z,10.95
2023-05-23T08:09:40.874Z,20.30
2023-05-23T08:12:10.270Z,20.33
2023-05-23T08:14:50.716Z,16.38
2023-05-23T08:17:29.865Z,13.15
2023-05-23T08:20:01.153Z,16.73
2023-05-23T08:22:29.067Z,18.10
2023-05-23T08:24:56.134Z,12.75
2023-05-23T08:27:24.423Z,17.08
2023-05-23T08:29:56.187Z,23.95
2023-05-23T08:32:24.412Z,15.00
2023-05-23T08:34:52.539Z,18.25
2023-05-23T08:37:22.389Z,15.38
2023-05-23T08:39:50.249Z,20.92
2023-05-23T08:42:49.718Z,17.35
2023-05-23T08:45:20.054Z,19.48
2023-05-23T08:47:48.789Z,14.88
2023-05-23T08:50:22.019Z,13.32
2023-05-23T08:52:59.170Z,11.55
2023-05-23T08:55:29.572Z,11.52
2023-05-23T08:58:01.918Z,11.70
2023-05-23T09:00:41.719Z,10.95
2023-05-23T09:03:12.492Z,15.35
2023-05-23T09:06:03.644Z,12.15
2023-05-23T09:08:31.408Z,12.27
2023-05-23T09:11:02.884Z,9.02
2023-05-23T09:13:33.386Z,9.18
2023-05-23T09:16:10.501Z,14.77
2023-05-23T09:18:45.581Z,9.68
2023-05-23T09:21:15.790Z,14.82
2023-05-23T09:23:55.050Z,10.98
2023-05-23T09:26:23.531Z,14.05
2023-05-23T09:28:50.836Z,11.85
2023-05-23T09:31:19.304Z,11.48
2023-05-23T09:33:50.588Z,10.00
2023-05-23T09:36:20.313Z,12.90
2023-05-23T09:38:52.716Z,11.48
2023-05-23T09:41:23.581Z,12.57
2023-05-23T09:43:55.201Z,12.18
2023-05-23T09:46:29.520Z,18.70
2023-05-23T09:48:57.877Z,13.90
2023-05-23T09:51:25.130Z,19.52
2023-05-23T09:53:53.501Z,16.33
2023-05-23T09:56:25.051Z,16.75
2023-05-23T09:58:54.696Z,18.10
2023-05-23T10:01:25.924Z,22.35
2023-05-23T10:03:59.989Z,18.20
2023-05-23T10:06:48.836Z,18.83
2023-05-23T10:09:19.093Z,20.63
2023-05-23T10:12:18.262Z,23.13
2023-05-23T10:14:51.726Z,18.20
2023-05-23T10:17:26.681Z,15.05
2023-05-23T10:20:08.550Z,19.83
2023-05-23T10:22:37.148Z,19.70
2023-05-23T10:25:06.605Z,16.15
2023-05-23T10:27:33.796Z,18.83
2023-05-23T10:30:01.275Z,22.95
2023-05-23T10:32:31.196Z,17.80
2023-05-23T10:35:11.407Z,14.85
2023-05-23T10:37:59.759Z,14.18
2023-05-23T10:40:48.677Z,15.65
2023-05-23T10:43:30.090Z,19.33
2023-05-23T10:45:57.241Z,16.70
2023-05-23T10:48:36.576Z,11.45
2023-05-23T10:51:06.520Z,16.85
2023-05-23T10:53:38.072Z,14.00
2023-05-23T10:56:09.804Z,14.80
2023-05-23T10:58:39.510Z,16.58
2023-05-23T11:01:13.399Z,10.82
2023-05-23T11:03:46.735Z,13.80
2023-05-23T11:06:43.354Z,11.45
2023-05-23T11:09:15.335Z,12.57
2023-05-23T11:11:52.555Z,12.35
2023-05-23T11:14:39.796Z,11.63
2023-05-23T11:17:12.971Z,12.27
2023-05-23T11:19:40.679Z,11.13
2023-05-23T11:22:10.706Z,11.30
2023-05-23T11:24:53.876Z,12.15
2023-05-23T11:27:41.544Z,12.40
2023-05-23T11:30:13.523Z,12.85
2023-05-23T11:32:41.583Z,13.90
2023-05-23T11:35:11.964Z,12.63
2023-05-23T11:37:39.910Z,10.57
2023-05-23T11:40:48.430Z,11.90
2023-05-23T11:43:17.856Z,5.68
2023-05-23T11:45:47.012Z,7.80
2023-05-23T11:48:16.890Z,12.15
2023-05-23T11:50:54.460Z,12.00
2023-05-23T11:53:25.518Z,7.30
2023-05-23T11:55:57.808Z,6.97
2023-05-23T11:58:36.796Z,11.27
2023-05-23T12:01:08.861Z,10.57
2023-05-23T12:03:49.069Z,7.15
2023-05-23T12:06:19.803Z,15.32
2023-05-23T12:08:51.385Z,9.98
2023-05-23T12:11:19.086Z,5.55
2023-05-23T12:13:46.141Z,7.93
2023-05-23T12:16:17.307Z,7.00
2023-05-23T12:18:44.472Z,9.13
2023-05-23T12:21:13.036Z,7.43
2023-05-23T12:23:40.543Z,8.18
2023-05-23T12:26:08.334Z,7.85
2023-05-23T12:28:42.415Z,10.93
2023-05-23T12:31:27.726Z,8.82
2023-05-23T12:33:54.802Z,11.30
2023-05-23T12:36:24.640Z,10.98
2023-05-23T12:38:51.908Z,9.48
2023-05-23T12:41:22.382Z,12.23
2023-05-23T12:43:54.553Z,9.38
2023-05-23T12:46:23.058Z,9.43
2023-05-23T12:48:50.784Z,13.23
2023-05-23T12:51:18.107Z,10.13
2023-05-23T12:53:45.707Z,8.00
2023-05-23T12:56:12.834Z,13.05
2023-05-23T12:58:39.809Z,9.23
2023-05-23T13:01:06.866Z,17.52
2023-05-23T13:03:33.956Z,14.43
2023-05-23T13:06:03.180Z,11.13
2023-05-23T13:08:30.261Z,10.68
2023-05-23T13:10:57.645Z,12.70
2023-05-23T13:13:24.981Z,8.07
2023-05-23T13:15:52.225Z,11.00
2023-05-23T13:18:19.355Z,10.35
2023-05-23T13:20:46.917Z,10.88
2023-05-23T13:23:14.347Z,14.15
2023-05-23T13:25:41.658Z,13.35
2023-05-23T13:28:09.386Z,13.70
2023-05-23T13:30:36.685Z,10.52
2023-05-23T13:33:04.086Z,8.85
2023-05-23T13:35:31.335Z,15.60
2023-05-23T13:37:59.864Z,10.60
2023-05-23T13:40:27.281Z,10.68
2023-05-23T13:42:58.936Z,11.10
2023-05-23T13:45:26.020Z,8.98
2023-05-23T13:47:53.034Z,11.50
2023-05-23T13:50:20.100Z,11.60
2023-05-23T13:52:49.602Z,9.13
2023-05-23T13:55:19.387Z,14.38
2023-05-23T13:57:46.712Z,13.80
2023-05-23T14:00:15.219Z,9.25
2023-05-23T14:02:45.085Z,10.05
2023-05-23T14:05:12.552Z,16.83
2023-05-23T14:07:40.108Z,15.13
2023-05-23T14:10:09.464Z,12.70
2023-05-23T14:12:36.904Z,17.45
2023-05-23T14:15:04.143Z,16.23
2023-05-23T14:17:31.171Z,11.88
2023-05-23T14:19:58.917Z,12.68
2023-05-23T14:22:25.900Z,15.02
2023-05-23T14:24:54.978Z,9.05
2023-05-23T14:27:25.791Z,13.55
2023-05-23T14:29:52.780Z,10.18
2023-05-23T14:32:19.855Z,11.60
2023-05-23T14:34:46.926Z,10.23
2023-05-23T14:37:15.798Z,11.43
2023-05-23T14:39:42.864Z,10.77
2023-05-23T14:42:10.992Z,10.85
2023-05-23T14:44:38.030Z,13.65
2023-05-23T14:47:05.506Z,11.13
2023-05-23T14:49:32.486Z,9.63
2023-05-23T14:52:00.018Z,13.77
2023-05-23T14:54:28.277Z,13.50
2023-05-23T14:56:55.378Z,12.10
2023-05-23T14:59:24.214Z,8.73
2023-05-23T15:02:00.597Z,10.38
2023-05-23T15:04:28.168Z,16.15
2023-05-23T15:06:57.830Z,9.68
2023-05-23T15:09:24.888Z,10.05
2023-05-23T15:11:53.325Z,9.75
2023-05-23T15:14:20.673Z,12.55
2023-05-23T15:16:51.354Z,16.02
2023-05-23T15:19:19.967Z,8.77
2023-05-23T15:21:51.103Z,7.45
2023-05-23T15:24:20.107Z,8.27
2023-05-23T15:26:49.000Z,9.70
2023-05-23T15:29:18.257Z,7.03
2023-05-23T15:31:45.793Z,10.38
2023-05-23T15:34:12.979Z,7.70
2023-05-23T15:36:43.808Z,11.45
2023-05-23T15:39:15.000Z,8.83
2023-05-23T15:41:42.074Z,15.67
2023-05-23T15:44:09.569Z,7.78
2023-05-23T15:46:37.124Z,11.02
2023-05-23T15:49:17.101Z,10.23
2023-05-23T15:51:51.004Z,10.02
2023-05-23T15:54:19.779Z,10.25
2023-05-23T15:56:47.920Z,6.85
2023-05-23T15:59:15.107Z,16.25
2023-05-23T16:01:43.407Z,7.13
2023-05-23T16:04:10.551Z,10.60
2023-05-23T16:06:39.350Z,10.57
2023-05-23T16:09:06.324Z,9.25
2023-05-23T16:11:33.290Z,10.98
2023-05-23T16:14:00.323Z,10.70
2023-05-23T16:16:27.413Z,8.63
2023-05-23T16:18:54.494Z,7.55
2023-05-23T16:21:22.123Z,10.05
2023-05-23T16:23:53.379Z,12.32
2023-05-23T16:26:21.043Z,8.48
2023-05-23T16:28:48.032Z,10.80
2023-05-23T16:31:16.849Z,12.93
2023-05-23T16:33:45.141Z,10.77
2023-05-23T16:36:12.596Z,11.32
2023-05-23T16:38:40.157Z,7.68
2023-05-23T16:41:07.162Z,11.65
2023-05-23T16:43:35.039Z,14.75
2023-05-23T16:46:02.367Z,11.27
2023-05-23T16:48:31.316Z,8.50
2023-05-23T16:51:02.018Z,10.55
2023-05-23T16:53:32.637Z,12.55
2023-05-23T16:55:59.703Z,12.18
2023-05-23T16:58:26.673Z,8.68
2023-05-23T17:00:53.716Z,13.45
2023-05-23T17:03:21.252Z,13.80
2023-05-23T17:05:48.624Z,15.68
2023-05-23T17:08:17.377Z,10.95
2023-05-23T17:10:44.457Z,8.45
2023-05-23T17:13:11.469Z,9.63
2023-05-23T17:15:38.525Z,11.35
2023-05-23T17:18:05.838Z,8.65
2023-05-23T17:20:33.659Z,10.20
2023-05-23T17:23:05.159Z,9.75
2023-05-23T17:25:34.144Z,8.48
2023-05-23T17:28:01.595Z,12.57
2023-05-23T17:30:29.806Z,10.55
2023-05-23T17:32:56.836Z,7.82
2023-05-23T17:35:24.382Z,13.52
2023-05-23T17:37:52.531Z,13.38
2023-05-23T17:40:19.727Z,9.77
2023-05-23T17:42:46.873Z,11.50
2023-05-23T17:45:13.945Z,13.93
2023-05-23T17:47:41.739Z,11.88
2023-05-23T17:50:09.635Z,11.80
2023-05-23T17:52:40.136Z,16.38
2023-05-23T17:55:07.597Z,14.35
2023-05-23T17:57:34.563Z,13.80
2023-05-23T18:00:01.928Z,8.80
2023-05-23T18:02:28.912Z,12.43
2023-05-23T18:04:56.739Z,12.30
2023-05-23T18:07:23.702Z,10.85
2023-05-23T18:09:50.869Z,11.23
2023-05-23T18:12:18.069Z,14.98
2023-05-23T18:14:45.754Z,7.57
2023-05-23T18:17:14.739Z,10.23
2023-05-23T18:19:42.269Z,10.55
2023-05-23T18:22:09.667Z,14.63
2023-05-23T18:24:36.809Z,10.93
2023-05-23T18:27:04.731Z,11.75
2023-05-23T18:29:31.904Z,10.30
2023-05-23T18:31:58.998Z,12.55
2023-05-23T18:34:27.802Z,17.52
2023-05-23T18:36:56.131Z,12.98
2023-05-23T18:39:24.762Z,12.43
2023-05-23T18:41:51.784Z,15.73
2023-05-23T18:44:20.606Z,15.52
2023-05-23T18:46:49.278Z,16.98
2023-05-23T18:49:17.212Z,21.33
2023-05-23T18:51:46.866Z,19.15
2023-05-23T18:54:13.845Z,13.10
2023-05-23T18:56:40.886Z,18.25
2023-05-23T18:59:08.690Z,20.00
2023-05-23T19:01:36.199Z,12.05
2023-05-23T19:04:03.535Z,17.48
2023-05-23T19:06:31.891Z,12.30
2023-05-23T19:08:58.836Z,10.93
2023-05-23T19:11:26.841Z,14.52
2023-05-23T19:13:53.900Z,15.45
2023-05-23T19:16:27.346Z,8.00
2023-05-23T19:18:54.400Z,8.05
2023-05-23T19:21:22.067Z,10.35
2023-05-23T19:23:49.121Z,8.50
2023-05-23T19:26:18.366Z,16.38
2023-05-23T19:28:46.202Z,8.77
2023-05-23T19:31:13.227Z,11.80
2023-05-23T19:33:40.952Z,9.23
2023-05-23T19:36:09.540Z,10.80
2023-05-23T19:38:36.694Z,13.57
2023-05-23T19:41:03.706Z,11.43
2023-05-23T19:43:30.756Z,8.07
2023-05-23T19:45:57.794Z,10.98
2023-05-23T19:48:24.906Z,18.05
2023-05-23T19:50:52.127Z,11.52
2023-05-23T19:53:19.275Z,11.50
2023-05-23T19:55:46.324Z,8.52
2023-05-23T19:58:15.627Z,12.65
2023-05-23T20:00:43.067Z,11.45
2023-05-23T20:03:10.988Z,12.30
2023-05-23T20:05:38.102Z,12.05
2023-05-23T20:08:05.253Z,7.10
2023-05-23T20:10:33.385Z,9.25
2023-05-23T20:13:02.393Z,7.70
2023-05-23T20:15:39.350Z,8.02
2023-05-23T20:18:08.285Z,15.23
2023-05-23T20:20:35.330Z,10.20
2023-05-23T20:23:03.911Z,11.23
2023-05-23T20:25:34.582Z,10.52
2023-05-23T20:28:02.021Z,7.60
2023-05-23T20:30:33.257Z,7.57
2023-05-23T20:33:00.319Z,7.70
2023-05-23T20:35:28.307Z,7.78
2023-05-23T20:37:55.372Z,7.80
2023-05-23T20:40:22.855Z,10.68
2023-05-23T20:42:50.196Z,9.60
2023-05-23T20:45:17.362Z,14.30
2023-05-23T20:47:44.602Z,10.57
2023-05-23T20:50:12.849Z,9.13
2023-05-23T20:52:42.959Z,8.00
2023-05-23T20:55:13.981Z,8.45
2023-05-23T20:57:42.040Z,9.43
2023-05-23T21:00:13.988Z,10.48
2023-05-23T21:02:42.016Z,8.75
2023-05-23T21:05:12.172Z,15.38
2023-05-23T21:07:39.572Z,18.85
2023-05-23T21:10:08.102Z,10.35
2023-05-23T21:12:35.258Z,9.77
2023-05-23T21:15:05.886Z,10.70
2023-05-23T21:17:32.926Z,11.57
2023-05-23T21:19:59.985Z,11.18
2023-05-23T21:22:27.943Z,13.75
2023-05-23T21:24:54.883Z,11.73
2023-05-23T21:27:21.873Z,10.35
2023-05-23T21:29:52.630Z,8.07
2023-05-23T21:32:20.154Z,8.85
2023-05-23T21:34:47.488Z,7.72
2023-05-23T21:37:16.845Z,15.50
2023-05-23T21:39:51.448Z,9.52
2023-05-23T21:42:19.762Z,8.52
2023-05-23T21:44:47.087Z,14.50
2023-05-23T21:47:15.408Z,12.45
2023-05-23T21:49:42.759Z,15.55
2023-05-23T21:52:09.785Z,9.30
2023-05-23T21:54:36.686Z,14.95
2023-05-23T21:57:03.839Z,10.07
2023-05-23T21:59:30.825Z,16.30
2023-05-23T22:01:57.979Z,11.20
2023-05-23T22:04:24.965Z,10.00
2023-05-23T22:06:52.896Z,13.77
2023-05-23T22:09:19.980Z,13.68
2023-05-23T22:11:47.033Z,11.48
2023-05-23T22:14:14.113Z,13.82
2023-05-23T22:16:41.248Z,9.07
2023-05-23T22:19:10.421Z,10.25
2023-05-23T22:21:37.883Z,9.40
2023-05-23T22:24:05.537Z,12.65
2023-05-23T22:26:32.639Z,13.23
2023-05-23T22:29:50.866Z,10.95
2023-05-23T22:32:18.235Z,16.63
2023-05-23T22:34:45.667Z,7.28
2023-05-23T22:37:12.710Z,9.30
2023-05-23T22:39:40.531Z,8.70
2023-05-23T22:42:07.674Z,10.57
2023-05-23T22:44:37.599Z,10.68
2023-05-23T22:47:04.905Z,10.45
2023-05-23T22:49:32.475Z,13.60
2023-05-23T22:51:59.718Z,9.23
2023-05-23T22:54:26.976Z,9.57
2023-05-23T22:56:55.808Z,6.35
2023-05-23T22:59:22.855Z,12.90
2023-05-23T23:01:49.920Z,15.48
2023-05-23T23:04:23.847Z,6.25
2023-05-23T23:06:53.909Z,17.65
2023-05-23T23:09:21.613Z,14.90
2023-05-23T23:11:48.890Z,12.88
2023-05-23T23:14:15.973Z,13.45
2023-05-23T23:16:43.407Z,14.70
2023-05-23T23:19:10.575Z,9.18
2023-05-23T23:21:37.967Z,13.32
2023-05-23T23:24:06.092Z,15.05
2023-05-23T23:26:33.080Z,9.27
2023-05-23T23:29:00.128Z,14.70
2023-05-23T23:31:27.180Z,12.52
2023-05-23T23:33:54.816Z,9.30
2023-05-23T23:36:22.225Z,13.35
2023-05-23T23:38:49.347Z,13.85
2023-05-23T23:41:16.610Z,9.52
2023-05-23T23:43:43.640Z,11.25
2023-05-23T23:46:11.367Z,13.32
2023-05-23T23:48:38.733Z,8.27
2023-05-23T23:51:09.411Z,11.63
2023-05-23T23:53:39.713Z,11.20
2023-05-23T23:56:07.482Z,9.95
2023-05-23T23:58:37.976Z,12.05
